Time;durP1;ratioP1;P1;durP2;ratioP2;P2;SDS_P1;SDS_P2;PMS_P1;PMS_P2;Temp;Humidity;BMP_temperature;BMP_pressure;BME280_temperature;BME280_humidity;BME280_pressure;Samples;Min_cycle;Max_cycle;Signal;HPM_P1;HPM_P2
2022/06/07 00:02:05;;;;;;;17.00;10.07;;;12.00;99.90;;;;;;5007809;28;20040;-62
2022/06/07 00:04:31;;;;;;;17.95;9.43;;;12.00;99.90;;;;;;5010689;28;20040;-60
2022/06/07 00:06:57;;;;;;;15.85;8.93;;;11.90;99.90;;;;;;5018496;28;20043;-60
2022/06/07 00:09:23;;;;;;;14.85;8.60;;;12.10;99.90;;;;;;5002335;28;20037;-61
2022/06/07 00:11:49;;;;;;;19.20;9.75;;;12.10;99.90;;;;;;5020358;28;20045;-61
2022/06/07 00:14:15;;;;;;;15.38;9.48;;;12.10;99.90;;;;;;5016160;28;20045;-61
2022/06/07 00:16:40;;;;;;;15.45;9.00;;;12.10;99.90;;;;;;5020514;28;20053;-60
2022/06/07 00:19:06;;;;;;;15.50;9.73;;;12.10;99.90;;;;;;5017384;28;20514;-61
2022/06/07 00:21:32;;;;;;;15.43;9.40;;;12.00;99.90;;;;;;5020867;28;20056;-61
2022/06/07 00:24:00;;;;;;;16.63;9.45;;;11.90;99.90;;;;;;5019402;28;20503;-61
2022/06/07 00:26:27;;;;;;;15.20;8.85;;;12.10;99.90;;;;;;5034604;28;20499;-61
2022/06/07 00:28:54;;;;;;;18.25;9.38;;;12.00;99.90;;;;;;5020402;28;20041;-61
2022/06/07 00:31:19;;;;;;;14.65;8.80;;;11.90;99.90;;;;;;5011674;28;20506;-61
2022/06/07 00:33:46;;;;;;;18.92;9.15;;;11.80;99.90;;;;;;5037392;28;20475;-60
2022/06/07 00:36:12;;;;;;;12.07;8.50;;;12.00;99.90;;;;;;5019327;28;20554;-60
2022/06/07 00:38:38;;;;;;;13.98;8.00;;;12.00;99.90;;;;;;5031086;28;20056;-60
2022/06/07 00:41:04;;;;;;;15.30;8.25;;;12.10;99.90;;;;;;5009439;28;20427;-61
2022/06/07 00:43:30;;;;;;;15.15;9.05;;;12.10;99.90;;;;;;4987088;28;20598;-60
2022/06/07 00:45:59;;;;;;;13.50;7.72;;;11.90;99.90;;;;;;5004845;28;20037;-60
2022/06/07 00:48:25;;;;;;;11.20;7.80;;;11.90;99.90;;;;;;5019576;28;20091;-60
2022/06/07 00:51:01;;;;;;;10.65;7.05;;;12.10;99.90;;;;;;5019596;28;20037;-60
2022/06/07 00:53:30;;;;;;;10.70;7.45;;;12.00;99.90;;;;;;5037532;28;20040;-60
2022/06/07 00:55:56;;;;;;;11.48;7.97;;;12.10;99.90;;;;;;5018621;28;20145;-60
2022/06/07 00:58:26;;;;;;;12.93;7.47;;;12.10;99.90;;;;;;5027654;28;20063;-61
2022/06/07 01:00:53;;;;;;;13.63;8.48;;;12.00;99.90;;;;;;5024986;28;20045;-60
2022/06/07 01:03:20;;;;;;;11.40;7.85;;;12.10;99.90;;;;;;5027157;28;20495;-60
2022/06/07 01:05:47;;;;;;;10.80;7.03;;;12.10;99.90;;;;;;5009688;28;20330;-61
2022/06/07 01:11:17;;;;;;;14.77;8.38;;;12.10;99.90;;;;;;4947712;28;20039;-61
2022/06/07 01:13:43;;;;;;;13.77;9.40;;;12.00;99.90;;;;;;4958088;28;20091;-61
2022/06/07 01:16:09;;;;;;;14.52;9.05;;;12.00;99.90;;;;;;4984641;28;20065;-62
2022/06/07 01:18:35;;;;;;;13.00;7.80;;;12.20;99.90;;;;;;5006293;28;20114;-61
2022/06/07 01:21:20;;;;;;;14.75;8.20;;;12.00;99.90;;;;;;5023848;28;20475;-61
2022/06/07 01:23:48;;;;;;;13.13;8.70;;;12.10;99.90;;;;;;5023292;28;20096;-62
2022/06/07 01:26:14;;;;;;;11.70;7.57;;;12.20;99.90;;;;;;5014729;28;20095;-61
2022/06/07 01:28:41;;;;;;;13.13;7.28;;;12.10;99.90;;;;;;5005976;28;20041;-61
2022/06/07 01:31:07;;;;;;;14.15;8.45;;;12.00;99.90;;;;;;5022898;28;20045;-62
2022/06/07 01:33:32;;;;;;;14.52;7.70;;;12.10;99.90;;;;;;5019798;28;20045;-62
2022/06/07 01:36:05;;;;;;;11.93;7.95;;;12.10;99.90;;;;;;5023906;28;20041;-61
2022/06/07 01:38:35;;;;;;;10.83;8.30;;;12.30;99.90;;;;;;5017055;28;20048;-61
2022/06/07 01:43:46;;;;;;;14.38;8.82;;;12.20;99.90;;;;;;5028351;28;20445;-60
2022/06/07 01:46:12;;;;;;;12.38;8.25;;;12.10;99.90;;;;;;5003597;28;20034;-61
2022/06/07 01:48:38;;;;;;;15.82;9.13;;;12.20;99.90;;;;;;5021271;28;20037;-62
2022/06/07 01:51:06;;;;;;;11.90;7.78;;;12.30;99.90;;;;;;5021972;28;20094;-62
2022/06/07 01:53:33;;;;;;;12.35;8.23;;;12.20;99.90;;;;;;5019758;28;20534;-62
2022/06/07 01:56:10;;;;;;;10.70;8.30;;;12.10;99.90;;;;;;5022060;28;20075;-60
2022/06/07 01:58:38;;;;;;;14.38;8.52;;;12.20;99.90;;;;;;5024867;28;20068;-60
2022/06/07 02:01:04;;;;;;;12.25;9.30;;;12.10;99.90;;;;;;5023187;28;20058;-61
2022/06/07 02:03:30;;;;;;;11.80;8.73;;;12.30;99.90;;;;;;5022915;28;20056;-61
2022/06/07 02:05:56;;;;;;;12.45;8.98;;;12.20;99.90;;;;;;5029736;28;20133;-62
2022/06/07 02:08:23;;;;;;;14.70;8.98;;;12.30;99.90;;;;;;5030640;28;20059;-61
2022/06/07 02:10:48;;;;;;;11.93;8.25;;;12.20;99.90;;;;;;5030405;28;20047;-61
2022/06/07 02:13:14;;;;;;;11.95;8.73;;;12.20;99.90;;;;;;5030650;28;20044;-61
2022/06/07 02:15:40;;;;;;;14.45;9.38;;;12.20;99.90;;;;;;5014852;28;20041;-61
2022/06/07 02:18:06;;;;;;;12.77;8.68;;;12.20;99.90;;;;;;5038751;28;20060;-62
2022/06/07 02:20:31;;;;;;;11.13;9.27;;;12.30;99.90;;;;;;5044653;28;20037;-62
2022/06/07 02:22:57;;;;;;;13.55;9.05;;;12.20;99.90;;;;;;5022029;28;20041;-61
2022/06/07 02:25:23;;;;;;;11.50;8.15;;;12.20;99.90;;;;;;5008448;28;20510;-60
2022/06/07 02:27:49;;;;;;;12.02;8.90;;;12.30;99.90;;;;;;5021870;28;20042;-60
2022/06/07 02:30:14;;;;;;;13.18;8.65;;;12.20;99.90;;;;;;5027497;28;20478;-60
2022/06/07 02:32:40;;;;;;;14.00;9.38;;;12.30;99.90;;;;;;5023775;28;20116;-61
2022/06/07 02:35:07;;;;;;;10.35;8.13;;;12.20;99.90;;;;;;5025833;28;20119;-61
2022/06/07 02:37:37;;;;;;;11.98;8.45;;;12.40;99.90;;;;;;5022062;28;20049;-60
2022/06/07 02:40:04;;;;;;;12.75;8.75;;;12.40;99.90;;;;;;5016834;28;20045;-61
2022/06/07 02:42:30;;;;;;;10.85;8.40;;;12.40;99.90;;;;;;5033321;28;20370;-60
2022/06/07 02:44:57;;;;;;;12.30;8.35;;;12.30;99.90;;;;;;5025716;28;20048;-60
2022/06/07 02:47:23;;;;;;;14.77;9.18;;;12.40;99.90;;;;;;5023695;28;20041;-61
2022/06/07 02:49:50;;;;;;;11.30;8.60;;;12.40;99.90;;;;;;5022818;28;20084;-60
2022/06/07 02:52:15;;;;;;;12.60;8.45;;;12.50;99.90;;;;;;5023009;28;20045;-61
2022/06/07 02:54:41;;;;;;;13.32;8.60;;;12.40;99.90;;;;;;5038962;28;20119;-60
2022/06/07 02:57:07;;;;;;;13.57;9.13;;;12.50;99.90;;;;;;5042671;28;20029;-60
2022/06/07 02:59:33;;;;;;;13.27;8.05;;;12.40;99.90;;;;;;5041234;28;20042;-61
2022/06/07 03:01:59;;;;;;;15.98;9.30;;;12.60;99.90;;;;;;5007256;28;20044;-60
2022/06/07 03:04:24;;;;;;;10.68;8.15;;;12.50;99.90;;;;;;5003779;28;20048;-60
2022/06/07 03:06:50;;;;;;;11.57;8.07;;;12.50;99.90;;;;;;5019172;28;20190;-60
2022/06/07 03:09:16;;;;;;;13.02;9.68;;;12.40;99.90;;;;;;5012093;28;20060;-60
2022/06/07 03:11:42;;;;;;;14.70;9.98;;;12.40;99.90;;;;;;5013797;28;20047;-60
2022/06/07 03:14:07;;;;;;;15.15;10.23;;;12.40;99.90;;;;;;5019125;28;20037;-60
2022/06/07 03:16:33;;;;;;;14.52;9.68;;;12.30;99.90;;;;;;5018478;28;20053;-60
2022/06/07 03:19:00;;;;;;;19.98;9.85;;;12.40;99.90;;;;;;5038963;28;20052;-60
2022/06/07 03:21:28;;;;;;;11.82;7.82;;;12.30;99.90;;;;;;5013081;28;20511;-60
2022/06/07 03:23:54;;;;;;;16.08;9.32;;;12.40;99.90;;;;;;5020421;28;20041;-60
2022/06/07 03:26:20;;;;;;;11.45;8.52;;;12.50;99.90;;;;;;5037111;28;20077;-60
2022/06/07 03:28:45;;;;;;;15.25;9.02;;;12.60;99.90;;;;;;5020593;28;20076;-60
2022/06/07 03:31:15;;;;;;;13.88;9.45;;;12.40;99.90;;;;;;5039118;28;20068;-60
2022/06/07 03:33:42;;;;;;;14.35;10.70;;;12.50;99.90;;;;;;5002761;28;20606;-61
2022/06/07 03:36:24;;;;;;;16.60;10.25;;;12.50;99.90;;;;;;5040103;28;20041;-61
2022/06/07 03:38:51;;;;;;;17.45;11.52;;;12.30;99.90;;;;;;5040246;28;20084;-60
2022/06/07 03:41:20;;;;;;;14.80;10.82;;;12.30;99.90;;;;;;5012125;28;20083;-60
2022/06/07 03:43:47;;;;;;;15.52;10.50;;;12.50;99.90;;;;;;5011067;28;20411;-60
2022/06/07 03:46:18;;;;;;;16.42;11.00;;;12.30;99.90;;;;;;5028710;28;20545;-60
2022/06/07 03:48:45;;;;;;;19.77;10.98;;;12.30;99.90;;;;;;5019180;28;20052;-60
2022/06/07 03:51:13;;;;;;;13.27;10.60;;;12.40;99.90;;;;;;5022490;28;20048;-60
2022/06/07 03:53:39;;;;;;;14.13;10.88;;;12.50;99.90;;;;;;5003544;28;20106;-61
2022/06/07 03:56:06;;;;;;;13.07;10.20;;;12.50;99.90;;;;;;5029005;28;20036;-61
2022/06/07 03:58:31;;;;;;;13.20;8.88;;;12.40;99.90;;;;;;5020298;28;20372;-61
2022/06/07 04:00:59;;;;;;;12.52;8.43;;;12.60;99.90;;;;;;5019406;28;20045;-62
2022/06/07 04:03:26;;;;;;;9.50;6.85;;;12.60;99.90;;;;;;5020449;28;20096;-60
2022/06/07 04:05:52;;;;;;;11.82;7.70;;;12.50;99.90;;;;;;5039856;28;20046;-60
2022/06/07 04:08:19;;;;;;;11.95;8.88;;;12.50;99.90;;;;;;5038328;28;20529;-60
2022/06/07 04:10:47;;;;;;;10.82;8.35;;;12.40;99.90;;;;;;5041126;28;20048;-60
2022/06/07 04:13:14;;;;;;;14.13;8.93;;;12.50;99.90;;;;;;5003607;28;20056;-60
2022/06/07 04:15:41;;;;;;;14.55;9.68;;;12.40;99.90;;;;;;5019599;28;20049;-60
2022/06/07 04:18:07;;;;;;;13.18;10.80;;;12.30;99.90;;;;;;5012666;28;20115;-61
2022/06/07 04:20:33;;;;;;;17.55;12.02;;;12.10;99.90;;;;;;5012461;28;20491;-61
2022/06/07 04:22:59;;;;;;;15.15;10.25;;;11.90;99.90;;;;;;5011149;28;20128;-61
2022/06/07 04:25:25;;;;;;;21.10;13.00;;;11.80;99.90;;;;;;5020523;28;20033;-61
2022/06/07 04:27:51;;;;;;;19.42;13.70;;;11.90;99.90;;;;;;5018105;28;20049;-61
2022/06/07 04:30:17;;;;;;;22.88;14.35;;;11.90;99.90;;;;;;5003669;28;20037;-62
2022/06/07 04:32:46;;;;;;;20.23;14.10;;;11.70;99.90;;;;;;5012721;28;20062;-61
2022/06/07 04:35:17;;;;;;;17.60;13.38;;;11.60;99.90;;;;;;5036335;28;20033;-61
2022/06/07 04:37:45;;;;;;;20.92;14.27;;;11.60;99.90;;;;;;5036550;28;20113;-63
2022/06/07 04:40:12;;;;;;;19.98;14.40;;;11.50;99.90;;;;;;5020466;28;20095;-61
2022/06/07 04:42:39;;;;;;;19.35;14.85;;;11.70;99.90;;;;;;5018404;28;20037;-61
2022/06/07 04:45:06;;;;;;;16.23;10.88;;;11.50;99.90;;;;;;5026931;28;20380;-61
2022/06/07 04:47:33;;;;;;;17.35;13.38;;;11.70;99.90;;;;;;5016770;28;20051;-61
2022/06/07 04:49:58;;;;;;;19.52;13.70;;;11.60;99.90;;;;;;5015341;28;20487;-61
2022/06/07 04:52:24;;;;;;;17.33;12.68;;;11.60;99.90;;;;;;5021276;28;20124;-61
2022/06/07 04:54:50;;;;;;;21.73;13.85;;;11.50;99.90;;;;;;5022602;28;20406;-61
2022/06/07 04:57:15;;;;;;;17.23;12.02;;;11.50;99.90;;;;;;5027461;28;20083;-61
2022/06/07 04:59:41;;;;;;;14.40;10.48;;;11.50;99.90;;;;;;5022290;28;20679;-61
2022/06/07 05:02:07;;;;;;;13.68;9.48;;;11.50;99.90;;;;;;5040317;28;20029;-61
2022/06/07 05:04:32;;;;;;;20.67;12.00;;;11.40;99.90;;;;;;5018089;28;20037;-61
2022/06/07 05:06:58;;;;;;;16.02;10.98;;;11.20;99.90;;;;;;5020657;28;20046;-61
2022/06/07 05:09:25;;;;;;;15.68;11.02;;;11.40;99.90;;;;;;4991690;28;20480;-61
2022/06/07 05:11:52;;;;;;;15.20;9.55;;;11.50;99.90;;;;;;5033166;28;20171;-61
2022/06/07 05:14:19;;;;;;;10.98;7.70;;;11.30;99.90;;;;;;5035499;28;20065;-61
2022/06/07 05:16:45;;;;;;;16.58;9.20;;;11.40;99.90;;;;;;5017209;28;20121;-61
2022/06/07 05:19:12;;;;;;;11.70;8.20;;;11.50;99.90;;;;;;5014616;28;20084;-61
2022/06/07 05:21:39;;;;;;;12.93;7.80;;;11.40;99.90;;;;;;5017608;28;20075;-61
2022/06/07 05:24:06;;;;;;;14.55;7.25;;;11.50;99.90;;;;;;5019100;28;20389;-61
2022/06/07 05:26:51;;;;;;;11.70;7.60;;;11.30;99.90;;;;;;5015967;28;20061;-60
2022/06/07 05:29:22;;;;;;;22.27;7.60;;;11.30;99.90;;;;;;5014467;28;20045;-61
2022/06/07 05:31:49;;;;;;;14.48;6.95;;;11.60;99.90;;;;;;5014389;28;20048;-61
2022/06/07 05:34:15;;;;;;;12.93;6.75;;;11.50;99.90;;;;;;5021827;28;20047;-61
2022/06/07 05:36:41;;;;;;;11.35;7.28;;;11.60;99.90;;;;;;5001948;28;20045;-61
2022/06/07 05:39:07;;;;;;;12.35;7.43;;;11.70;99.90;;;;;;5026552;28;20045;-60
2022/06/07 05:41:33;;;;;;;12.27;6.80;;;11.80;99.90;;;;;;5023328;28;20038;-61
2022/06/07 05:43:59;;;;;;;8.43;6.13;;;12.00;99.90;;;;;;5020121;28;20057;-60
2022/06/07 05:46:25;;;;;;;11.43;6.53;;;12.10;99.90;;;;;;5006895;28;20095;-60
2022/06/07 05:48:51;;;;;;;13.90;6.95;;;12.00;99.90;;;;;;5022948;28;20503;-62
2022/06/07 05:51:17;;;;;;;7.70;5.82;;;12.10;99.90;;;;;;5008177;28;20540;-61
2022/06/07 05:53:43;;;;;;;11.15;7.03;;;12.00;99.90;;;;;;5013271;28;20042;-61
2022/06/07 05:56:12;;;;;;;8.60;5.75;;;11.90;99.90;;;;;;4998649;28;20130;-61
2022/06/07 05:58:38;;;;;;;12.23;8.43;;;12.00;99.90;;;;;;5015591;28;20042;-61
2022/06/07 06:01:04;;;;;;;12.27;7.68;;;11.90;99.90;;;;;;5016003;28;20049;-60
2022/06/07 06:03:30;;;;;;;15.70;9.50;;;11.90;99.90;;;;;;5015546;28;20568;-60
2022/06/07 06:05:57;;;;;;;13.85;8.57;;;11.70;99.90;;;;;;5023282;28;20054;-60
2022/06/07 06:11:15;;;;;;;11.48;8.60;;;11.80;99.90;;;;;;5016115;28;20514;-61
2022/06/07 06:13:41;;;;;;;10.13;7.55;;;11.70;99.90;;;;;;5016548;28;20041;-61
2022/06/07 06:16:10;;;;;;;13.10;7.80;;;11.80;99.90;;;;;;5015452;28;20381;-61
2022/06/07 06:18:37;;;;;;;14.05;9.15;;;11.50;99.90;;;;;;5013706;28;20053;-60
2022/06/07 06:21:03;;;;;;;11.25;6.93;;;11.60;99.90;;;;;;5043324;28;20039;-60
2022/06/07 06:23:29;;;;;;;13.82;8.15;;;11.60;99.90;;;;;;5018083;28;20515;-60
2022/06/07 06:25:55;;;;;;;5.50;4.35;;;11.40;99.90;;;;;;5028331;28;20055;-61
2022/06/07 06:28:21;;;;;;;7.88;5.25;;;11.40;99.90;;;;;;5035560;28;20055;-60
2022/06/07 06:30:48;;;;;;;11.10;5.65;;;11.40;99.90;;;;;;5022923;28;20402;-61
2022/06/07 06:33:16;;;;;;;10.13;6.45;;;11.30;99.90;;;;;;5017374;28;20037;-60
2022/06/07 06:35:51;;;;;;;9.55;5.68;;;11.50;99.90;;;;;;5032540;28;20045;-61
2022/06/07 06:38:17;;;;;;;6.93;4.40;;;11.60;99.90;;;;;;5028594;28;20037;-60
2022/06/07 06:40:44;;;;;;;6.18;4.18;;;11.30;99.90;;;;;;5042980;28;20040;-61
2022/06/07 06:43:10;;;;;;;7.82;4.45;;;11.50;99.90;;;;;;5017335;28;20394;-62
2022/06/07 06:45:36;;;;;;;7.30;4.53;;;11.30;99.90;;;;;;5020826;28;20037;-62
2022/06/07 06:48:02;;;;;;;5.88;2.88;;;11.60;99.90;;;;;;5028077;28;20048;-62
2022/06/07 06:50:28;;;;;;;6.47;3.50;;;11.40;99.90;;;;;;5012829;28;20076;-62
2022/06/07 06:52:55;;;;;;;8.82;3.83;;;11.60;99.90;;;;;;5013166;28;20077;-62
2022/06/07 06:55:21;;;;;;;5.38;3.55;;;11.70;99.90;;;;;;5011867;28;20037;-61
2022/06/07 06:57:48;;;;;;;7.50;2.88;;;11.70;99.90;;;;;;5008887;28;20049;-61
2022/06/07 07:00:15;;;;;;;7.07;2.05;;;11.70;99.90;;;;;;5017325;28;20046;-62
2022/06/07 07:02:41;;;;;;;5.40;1.60;;;11.70;99.90;;;;;;5023517;28;20188;-62
2022/06/07 07:05:08;;;;;;;4.60;1.20;;;11.60;99.90;;;;;;5014438;28;20041;-62
2022/06/07 07:07:35;;;;;;;4.60;1.23;;;11.80;99.90;;;;;;5026793;28;20040;-62
2022/06/07 07:10:01;;;;;;;5.30;1.00;;;11.70;99.90;;;;;;5044506;28;20041;-62
2022/06/07 07:12:27;;;;;;;5.28;0.90;;;11.90;99.90;;;;;;5018785;28;20033;-62
2022/06/07 07:14:52;;;;;;;6.50;1.13;;;11.80;99.90;;;;;;5022206;28;20505;-61
2022/06/07 07:17:18;;;;;;;5.10;1.17;;;12.00;99.90;;;;;;5019298;28;20052;-61
2022/06/07 07:19:44;;;;;;;6.63;1.23;;;12.30;99.90;;;;;;5033117;28;20045;-61
2022/06/07 07:22:09;;;;;;;5.53;1.25;;;12.40;99.90;;;;;;5005696;28;20056;-62
2022/06/07 07:24:35;;;;;;;6.10;0.95;;;12.60;99.90;;;;;;5017459;28;20459;-61
2022/06/07 07:27:01;;;;;;;3.53;1.15;;;12.60;99.90;;;;;;5022022;28;20052;-62
2022/06/07 07:29:27;;;;;;;7.40;1.80;;;12.70;99.90;;;;;;5013838;28;20036;-60
2022/06/07 07:31:53;;;;;;;4.35;1.05;;;13.10;99.90;;;;;;5041127;28;20514;-60
2022/06/07 07:34:19;;;;;;;4.00;1.33;;;13.00;99.90;;;;;;5020723;28;20049;-61
2022/06/07 07:36:51;;;;;;;5.35;1.65;;;12.80;99.90;;;;;;5027294;28;20075;-60
2022/06/07 07:39:17;;;;;;;6.07;1.58;;;12.90;99.90;;;;;;5034460;28;20095;-60
2022/06/07 07:41:45;;;;;;;5.80;1.75;;;12.70;99.90;;;;;;5039618;28;20044;-60
2022/06/07 07:44:13;;;;;;;5.70;1.30;;;12.70;99.90;;;;;;5049015;28;20113;-60
2022/06/07 07:46:41;;;;;;;5.63;1.00;;;12.80;99.90;;;;;;5025853;28;20483;-60
2022/06/07 07:49:07;;;;;;;5.93;0.60;;;12.60;99.90;;;;;;5025316;28;20099;-61
2022/06/07 07:51:39;;;;;;;6.35;1.20;;;12.70;99.90;;;;;;5021483;28;20457;-61
2022/06/07 07:54:07;;;;;;;8.77;1.30;;;12.90;99.90;;;;;;5021845;28;20495;-61
2022/06/07 07:56:35;;;;;;;6.22;1.27;;;12.90;99.90;;;;;;5038425;28;20443;-61
2022/06/07 07:59:02;;;;;;;6.20;1.15;;;13.10;99.90;;;;;;5019209;28;20041;-61
2022/06/07 08:01:28;;;;;;;6.07;1.08;;;13.10;99.90;;;;;;5041621;28;20040;-61
2022/06/07 08:04:00;;;;;;;6.70;1.00;;;13.10;99.90;;;;;;5012783;28;20096;-61
2022/06/07 08:06:28;;;;;;;5.03;0.90;;;13.20;99.90;;;;;;5035223;28;20033;-61
2022/06/07 08:08:56;;;;;;;7.85;1.27;;;13.20;99.90;;;;;;5029036;28;20029;-61
2022/06/07 08:11:29;;;;;;;7.28;0.95;;;13.20;99.90;;;;;;5023050;28;20095;-62
2022/06/07 08:13:55;;;;;;;7.45;0.80;;;13.10;99.90;;;;;;5013233;28;20080;-60
2022/06/07 08:16:22;;;;;;;8.27;1.00;;;12.90;99.90;;;;;;5031960;28;20037;-61
2022/06/07 08:18:48;;;;;;;6.03;0.60;;;12.80;99.90;;;;;;5044081;28;20045;-61
2022/06/07 08:21:20;;;;;;;8.63;0.88;;;12.90;99.90;;;;;;5019120;28;20396;-61
2022/06/07 08:23:47;;;;;;;6.00;0.60;;;12.90;99.90;;;;;;5029389;28;20116;-60
2022/06/07 08:26:13;;;;;;;6.03;0.75;;;13.00;99.90;;;;;;5031486;28;20452;-60
2022/06/07 08:28:40;;;;;;;8.07;0.80;;;13.10;99.90;;;;;;5014596;28;20069;-60
2022/06/07 08:31:12;;;;;;;5.50;0.60;;;13.20;99.90;;;;;;5011553;28;20072;-61
2022/06/07 08:39:06;;;;;;;4.10;0.38;;;13.90;99.90;;;;;;5045177;28;20479;-60
2022/06/07 08:41:44;;;;;;;4.38;0.52;;;14.10;99.90;;;;;;5013882;28;20039;-61
2022/06/07 08:44:30;;;;;;;5.38;0.50;;;14.30;99.90;;;;;;5013656;28;20448;-61
2022/06/07 08:47:05;;;;;;;7.18;0.60;;;14.20;99.90;;;;;;5014188;28;20045;-60
2022/06/07 08:49:31;;;;;;;5.65;0.50;;;14.40;99.90;;;;;;5028275;28;20128;-60
2022/06/07 08:52:11;;;;;;;7.22;0.57;;;14.60;99.90;;;;;;5033735;28;20115;-60
2022/06/07 08:54:39;;;;;;;5.93;0.75;;;14.80;99.90;;;;;;5036958;28;20041;-60
2022/06/07 08:57:27;;;;;;;5.93;0.68;;;14.60;99.90;;;;;;5014497;28;20132;-59
2022/06/07 08:59:56;;;;;;;7.05;0.65;;;14.40;99.90;;;;;;5045642;28;20053;-59
2022/06/07 09:02:57;;;;;;;4.95;0.70;;;14.50;99.90;;;;;;5022452;28;20041;-59
2022/06/07 09:05:25;;;;;;;8.15;0.82;;;14.40;99.90;;;;;;5005971;28;20617;-60
2022/06/07 09:07:51;;;;;;;9.07;0.88;;;14.30;99.90;;;;;;5021562;28;20049;-60
2022/06/07 09:13:07;;;;;;;5.97;0.68;;;14.20;99.90;;;;;;5043205;28;20201;-60
2022/06/07 09:15:36;;;;;;;5.72;0.45;;;14.00;99.90;;;;;;5026329;28;20037;-60
2022/06/07 09:18:04;;;;;;;4.30;0.57;;;13.90;99.90;;;;;;5021876;28;20065;-62
2022/06/07 09:20:37;;;;;;;4.65;0.50;;;13.90;99.90;;;;;;5017214;28;20049;-62
2022/06/07 09:23:24;;;;;;;6.28;0.45;;;13.90;99.90;;;;;;5026410;28;20052;-62
2022/06/07 09:25:53;;;;;;;7.65;0.75;;;13.80;99.90;;;;;;5016841;28;20698;-61
2022/06/07 09:28:23;;;;;;;4.97;0.50;;;13.90;99.90;;;;;;5032689;28;20538;-61
2022/06/07 09:31:01;;;;;;;4.68;0.52;;;13.80;99.90;;;;;;5021948;28;20053;-62
2022/06/07 09:33:31;;;;;;;5.55;0.70;;;13.90;99.90;;;;;;5015865;28;20068;-61
2022/06/07 09:36:08;;;;;;;8.05;0.80;;;14.00;99.90;;;;;;5022697;28;20041;-61
2022/06/07 09:38:38;;;;;;;9.23;0.80;;;14.20;99.90;;;;;;5029985;28;20059;-62
2022/06/07 09:44:33;;;;;;;4.85;0.73;;;14.10;99.90;;;;;;5019178;28;20057;-62
2022/06/07 09:47:06;;;;;;;7.55;0.50;;;13.70;99.90;;;;;;5000851;28;20120;-62
2022/06/07 09:49:48;;;;;;;4.78;0.45;;;13.50;99.90;;;;;;5011944;28;20033;-62
2022/06/07 09:52:24;;;;;;;3.30;0.38;;;13.50;99.90;;;;;;5025083;28;20120;-62
2022/06/07 09:54:55;;;;;;;3.75;0.30;;;13.50;99.90;;;;;;5013309;28;20053;-62
2022/06/07 09:57:35;;;;;;;4.53;0.30;;;13.60;99.90;;;;;;5016191;28;20515;-62
2022/06/07 10:00:21;;;;;;;4.88;0.30;;;13.70;99.90;;;;;;5016193;28;20041;-61
2022/06/07 10:03:01;;;;;;;4.07;0.20;;;13.70;99.90;;;;;;5026980;28;20040;-60
2022/06/07 10:05:42;;;;;;;3.28;0.43;;;13.90;99.90;;;;;;5029677;28;20036;-60
2022/06/07 10:08:45;;;;;;;1.88;0.20;;;14.00;99.90;;;;;;5015435;28;20171;-61
2022/06/07 10:11:28;;;;;;;2.28;0.20;;;14.00;99.90;;;;;;5014276;28;20084;-61
2022/06/07 10:14:16;;;;;;;1.77;0.17;;;14.20;99.90;;;;;;5032874;28;20492;-62
2022/06/07 10:17:29;;;;;;;2.90;0.30;;;14.10;99.90;;;;;;5003189;28;20463;-61
2022/06/07 10:20:20;;;;;;;1.73;0.20;;;14.10;99.90;;;;;;5029220;28;20053;-60
2022/06/07 10:22:52;;;;;;;4.78;0.35;;;14.30;99.90;;;;;;5047916;28;20068;-60
2022/06/07 10:25:46;;;;;;;2.63;0.30;;;14.40;99.90;;;;;;5046000;28;20032;-61
2022/06/07 10:28:31;;;;;;;3.05;0.30;;;14.50;99.90;;;;;;5014594;28;20036;-61
2022/06/07 10:31:05;;;;;;;6.60;0.60;;;14.60;99.90;;;;;;5013671;28;20041;-61
2022/06/07 10:33:37;;;;;;;4.55;0.40;;;14.70;99.90;;;;;;5023560;28;20040;-60
2022/06/07 10:36:23;;;;;;;5.72;0.40;;;14.80;99.90;;;;;;4999085;28;20555;-60
2022/06/07 10:39:08;;;;;;;7.18;0.60;;;15.00;99.90;;;;;;5020512;28;20052;-60
2022/06/07 10:41:46;;;;;;;8.20;0.60;;;14.80;99.90;;;;;;5033090;28;20498;-60
2022/06/07 10:44:29;;;;;;;12.90;0.70;;;14.60;99.90;;;;;;5032672;28;20372;-61
2022/06/07 10:46:55;;;;;;;5.90;0.88;;;14.70;99.90;;;;;;5033582;28;20048;-60
2022/06/07 10:49:21;;;;;;;8.40;0.60;;;14.60;99.90;;;;;;5016458;28;20072;-60
2022/06/07 10:52:21;;;;;;;5.70;0.63;;;14.50;99.90;;;;;;5033221;28;20411;-60
2022/06/07 10:54:56;;;;;;;5.40;0.52;;;14.70;99.90;;;;;;5033132;28;20522;-60
2022/06/07 10:57:51;;;;;;;7.68;0.90;;;15.00;99.90;;;;;;5039321;28;20076;-60
2022/06/07 11:00:30;;;;;;;6.22;0.60;;;14.90;99.90;;;;;;5024245;28;20029;-61
2022/06/07 11:03:24;;;;;;;10.15;1.08;;;14.90;99.90;;;;;;5006942;28;20048;-60
2022/06/07 11:11:35;;;;;;;7.38;0.70;;;14.20;99.90;;;;;;5020742;28;20087;-61
2022/06/07 11:14:19;;;;;;;8.45;0.73;;;14.10;99.90;;;;;;5018182;28;20403;-61
2022/06/07 11:16:57;;;;;;;7.40;0.60;;;13.90;99.90;;;;;;5031530;28;20140;-60
2022/06/07 11:19:24;;;;;;;8.75;0.70;;;13.90;99.90;;;;;;5023831;28;20096;-60
2022/06/07 11:21:55;;;;;;;9.07;0.63;;;14.10;99.90;;;;;;5024069;28;20047;-61
2022/06/07 11:24:28;;;;;;;8.32;0.60;;;14.20;99.90;;;;;;5021384;28;21182;-61
2022/06/07 11:26:54;;;;;;;5.97;0.80;;;14.40;99.90;;;;;;5013178;28;20439;-61
2022/06/07 11:29:23;;;;;;;6.35;0.60;;;14.50;99.90;;;;;;5012294;28;20594;-61
2022/06/07 11:31:50;;;;;;;7.55;0.85;;;14.60;99.90;;;;;;5006664;28;20152;-60
2022/06/07 11:34:29;;;;;;;5.07;0.77;;;14.60;99.90;;;;;;5016740;28;20507;-62
2022/06/07 11:37:10;;;;;;;7.53;0.77;;;14.60;99.90;;;;;;5016386;28;20051;-61
2022/06/07 11:39:38;;;;;;;10.35;0.70;;;14.70;99.90;;;;;;5016229;28;20041;-61
2022/06/07 11:42:07;;;;;;;6.93;0.60;;;14.80;99.90;;;;;;5024937;28;20478;-62
2022/06/07 11:44:55;;;;;;;4.70;0.60;;;14.80;99.90;;;;;;5022124;28;20059;-62
2022/06/07 11:47:25;;;;;;;6.22;0.88;;;14.90;99.90;;;;;;5030294;28;20041;-61
2022/06/07 11:49:51;;;;;;;3.60;0.50;;;15.30;99.90;;;;;;5013761;28;20103;-61
2022/06/07 11:52:32;;;;;;;6.60;0.80;;;15.40;99.90;;;;;;5015874;28;20037;-61
2022/06/07 11:55:13;;;;;;;6.13;0.60;;;15.50;99.90;;;;;;5021811;28;20064;-61
2022/06/07 11:57:55;;;;;;;5.80;0.60;;;15.60;99.90;;;;;;5036219;28;20056;-62
2022/06/07 12:00:23;;;;;;;5.43;0.73;;;15.40;99.90;;;;;;5013737;28;20037;-61
2022/06/07 12:03:01;;;;;;;7.20;0.50;;;15.30;99.90;;;;;;5040934;28;20041;-61
2022/06/07 12:05:37;;;;;;;5.53;0.60;;;15.20;99.90;;;;;;5028831;28;20035;-62
2022/06/07 12:08:21;;;;;;;4.10;0.63;;;15.00;99.90;;;;;;5025650;28;20038;-61
2022/06/07 12:11:20;;;;;;;7.10;0.60;;;15.10;99.90;;;;;;5036452;28;21568;-62
2022/06/07 12:14:02;;;;;;;4.70;0.43;;;15.20;99.90;;;;;;5024982;28;20064;-60
2022/06/07 12:16:30;;;;;;;2.67;0.40;;;15.30;99.90;;;;;;5033617;28;20047;-61
2022/06/07 12:18:59;;;;;;;5.75;0.60;;;15.30;99.90;;;;;;5021731;28;20415;-61
2022/06/07 12:21:27;;;;;;;4.45;0.50;;;15.40;99.90;;;;;;5025370;28;20095;-61
2022/06/07 12:24:15;;;;;;;4.70;0.52;;;15.40;99.90;;;;;;5013090;28;20081;-61
2022/06/07 12:26:45;;;;;;;5.15;0.50;;;15.50;99.90;;;;;;5021160;28;20459;-61
2022/06/07 12:29:19;;;;;;;3.05;0.30;;;15.70;99.90;;;;;;5013101;28;20045;-61
2022/06/07 12:31:52;;;;;;;4.22;0.52;;;15.90;99.90;;;;;;5040134;28;20046;-61
2022/06/07 12:34:25;;;;;;;3.78;0.30;;;15.90;99.90;;;;;;5013112;28;20049;-61
2022/06/07 12:36:58;;;;;;;4.25;0.45;;;15.90;99.90;;;;;;5002212;28;20042;-61
2022/06/07 12:39:26;;;;;;;2.63;0.30;;;15.90;99.90;;;;;;5015122;28;20292;-61
2022/06/07 12:41:54;;;;;;;6.82;0.47;;;15.70;99.90;;;;;;5014348;28;20438;-61
2022/06/07 12:44:28;;;;;;;3.90;0.50;;;15.90;99.90;;;;;;5026935;28;20041;-61
2022/06/07 12:46:56;;;;;;;5.53;0.57;;;16.20;99.90;;;;;;5025818;28;20033;-61
2022/06/07 12:49:26;;;;;;;3.65;0.50;;;16.50;99.90;;;;;;5010454;28;20142;-61
2022/06/07 12:51:57;;;;;;;6.63;0.52;;;17.00;99.90;;;;;;5022605;28;20037;-61
2022/06/07 12:54:23;;;;;;;5.80;0.45;;;17.30;99.90;;;;;;5018745;28;20542;-61
2022/06/07 12:56:51;;;;;;;4.18;0.40;;;18.00;99.90;;;;;;5012748;28;20044;-61
2022/06/07 12:59:22;;;;;;;4.40;0.50;;;18.40;99.90;;;;;;5017742;28;20507;-61
2022/06/07 13:01:51;;;;;;;1.98;0.30;;;18.50;99.90;;;;;;5016200;28;20091;-61
2022/06/07 13:04:33;;;;;;;4.53;0.47;;;18.60;99.90;;;;;;5033812;28;20049;-62
2022/06/07 13:07:07;;;;;;;2.83;0.38;;;18.50;99.90;;;;;;5050447;28;20084;-61
2022/06/07 13:09:33;;;;;;;3.28;0.30;;;18.30;99.90;;;;;;5024882;28;20110;-61
2022/06/07 13:12:00;;;;;;;3.22;0.30;;;17.90;99.90;;;;;;5028306;28;20025;-61
2022/06/07 13:14:26;;;;;;;2.13;0.20;;;17.70;99.90;;;;;;5021486;28;20053;-61
2022/06/07 13:16:52;;;;;;;2.38;0.28;;;17.70;99.90;;;;;;5029327;28;20526;-61
2022/06/07 13:19:27;;;;;;;4.53;0.30;;;17.60;99.90;;;;;;5024405;28;20777;-61
2022/06/07 13:22:17;;;;;;;3.55;0.30;;;17.50;99.90;;;;;;5045005;28;20079;-61